Timeline UpdatesTrip UpdatesNews PostsPvt PostsTravel TipsAdmin PostsConv PostsFollowed PostsChat RequestsBlog PostsPNR Posts

Disclaimer
Search
 
 
Fri Apr 18, 2014 18:42:40 ISTHomeTrainsΣChainsAtlasPNRForumGalleryNewsFAQTripsMembersLoginFeedback
No Recent News for this Train
Other Trains in the News **new
Latest...
Will arrive MAQ at 11:05 w.e.f 1st july 2012
Sat Jun 23, 2012 (11:41PM)
⇐ Return Journey: Train# 16348

16347/Trivandrum Mangalore Express

Feb 28 2014 (1:41PM)
Change Departure Station:
Change Arrival Station:
Post a Train Travel TipPost a Train Travel Tip **new
Post a Comment/Question/Picture/VideoPost a Comment/Question/Picture/Video
Pantry/Catering
✕ NO Pantry Car
✓ Catering Avbl
RSA - Rake Sharing
RSA with 12619/12620 Matsyagandha Express
Rake/Coach Composition
A1, B1-B3, S1-S11. (From PNR Blogs); To be augmented with an additional Sleeper class With effect from 15.7.11 permanently.
Loco
ED WDM-3D which brings 16650 parasuram takes this train back
News    PNR    Forum    Time-Table    Availability    Fare Chart    Map    Arr/Dep History    Trips    Gallery    ΣChains    X/O    Timeline    
Travel Time: 1h 50m    4 halts    Distance: 69 km    Avg Speed: 37 km/hr
Type: Mail/Express
Zone: SR/Southern
Departs @ 09:05 (Avg 1h 2m late)
Platform# ???
SMTWTFS
Kanhangad/KZE 
Arrives @ 10:55 (Avg 37m late)
Platform# 1
SMTWTFS
Mangalore Central/MAQ 

4 halts. 10 intermediate Stations between Kanhangad and Mangalore Central

Show ALL intermediate Stations  Show Old Time-Table

#CodeStation NameX/OArrivesAvgDepartsAvgHaltPFDay#KmSpeedElevZoneAddress
1TVCTrivandrum Central (5)  -20:40+3321-563.03512mSRPh: 0471-2321622, Kerala
2TVPThiruvananthapuram Pettah (2)X  20:44+3320:45+331m--1-560.77518mSRTrivandrum Ph: 04712470181, Kerala
3CRYChirayinkeezhu (2)  21:06+3521:07+351m--1-534.34619mSRChirayinkeezhu, Kerala
4KVUKadakavur (3)X  21:11+3521:12+351m--1-531.24620mSRKadakkavoor, Kerala
5VAKVarkala Sivagiri (3)  21:24+3521:25+361m--1-522.16152mSREdava Kappil Road, Kerala
6PVUParavur (3)  21:36+3721:37+371m--1-510.85318mSRParavoor, Kerala
7MYYMayyanad (2)  21:41+3821:42+381m--1-507.34121mSRMayyanad, Kerala
8QLNKollam Junction (6)  21:55+3622:00+365m21-498.47316mSRKollam 0474-2746194, Kerala
9STKTSasthamkotta (2)X22:16+4322:17+431m--1-479.0650mSRKollam Dist, Kerala
10KPYKarunagappalli (2)  22:24+4322:25+431m11-471.34112mSRKollam Dist, Kerala
11KYJKayamkulam Junction (5)  22:45+4022:47+402m--1-457.65811mSRAlappuzha Ph;0479-2442042, Kerala
12MVLKMavelikara (3)  22:55+4322:57+442m21-450.06313mSRMavelikkara Ph: 0479-2302249, Kerala
13CNGRChengannur (3)  23:09+4323:10+461m--1-437.4606mSRPh: 0479-2452340, Kerala
14TRVLTiruvalla (2)  23:19+4923:20+511m--1-428.35227mSRPh: 0469-2601314, Kerala
15CGYChanganassery (3)X  23:29+5223:30+521m--1-420.54711mSRPh: 0481- 2420108, Kerala
16KTYMKottayam (3)  23:53+5123:58+525m--1-402.66015mSRTel: 0481 2563535, Kerala
17PVRDPiravom Road  00:29+5700:30+591m--2-371.43112mSRKottayam, Kerala
18ERNErnakulam Town (North) (2)X  01:25+4701:30+475m12-342.7509mSRTel: 0484 2395198, Kerala
19AWYAluva (3)X  01:50+4601:53+463m32-325.86112mSRPh: 0484-2624141, Kerala
20AFKAngamaly for Kalady (3)X  02:02+4702:03+481m--2-316.65716mSRPhone: 0484-2452340, Kerala
21CKIChalakkudy (3)  02:19+4702:20+471m22-301.4439mSRPh: 0480- 2701368, Kerala
22IJKIrinjalakkuda (2)X  02:29+4702:30+481m--2-295.04418mSRKalletumkara, Kerala
23TCRThrissur (4)X  03:02+4003:05+413m22-271.2706mSRThrissur Tel: 0487 2423150, Kerala
24WKIWadakkanchery (2)X  03:19+4403:20+451m22-254.82540mSRWadackanchery, Kerala
25SRRShoranur Junction (7)X  04:00+3504:10+4310m--2-238.35026mSRShoranur ph.no 0466-2222913, Kerala
26PTBPattambi (2)  04:24+4404:25+451m--2-226.85821mSRPattambi, Kerala
27KTUKuttippuram (2)  04:44+4404:45+451m--2-208.35617mSRKuttippuram, Kerala
28TIRTirur (3)  05:01+4605:03+462m12-193.2609mSRTel: 0494 2422240, Kerala
29TATanur (3)  05:11+4905:12+491m--2-185.28111mSRMalappuram, Kerala
30PGIParappangadi (2)  05:18+5105:20+512m--2-177.110019mSRParappanangadi, Kerala
31VLIVallikunnu (2)X  05:23+4905:25+482m--2-172.13813mSRVallikkunnu, Kerala
32FKFerok (2)  05:41+4905:43+482m--2-161.92719mSRFeroke, Kerala
33CLTKozhikode Main (4)X  06:05+4306:10+455m32-152.06611mSRCalicut Tel: 0495 2701234, Kerala
34QLDKoyilandy (3)  06:32+4506:33+461m--2-127.67711mSRQuilandi, Kerala
35BDJVadakara (2)  06:50+4806:52+482m22-105.79711mSRCalicut / Station Ph No : 0496-2524254, Kerala
36MAHEMahe (2)  07:00+5207:02+522m--2-92.86916mSRMahe, Puducherry
37TLYThalassery (2)  07:10+5507:12+552m--2-83.6339mSRKannur, Kerala
38CANKannur Main (3)  07:50+3907:55+465m12-62.96714mSRKannur Tel: 0497 2705555, Kerala
39KPQKannapuram (2)  08:08+4808:10+472m--2-48.5569mSRKannur District, Kerala
40PAZPayangadiX  08:18+4808:20+472m--2-41.08712mSRKannur District, Kerala
41PAYPayyanur (3)X  08:28+5108:30+512m--2-29.31240mSRKannur District, Kerala
42TKQTrikkarippur  08:33+5808:35+572m--2-23.16413mSRKasargod district, Kerala
43CHVCharvattur (3)X  08:43+5808:45+582m--2-14.55314mSRKasaragod district, Kerala
44NLENileshwar (2)  08:51+1:0208:53+1:022m--2-9.35612mSRNileswaram, Kerala
45KZE»Kanhangad (3)»  09:03+1:0209:05+1:022m--20.08815mSRKanhangad, Kerala
46BFRBekal Fort (2)X  09:11+1:0309:13+1:022m--28.85811mSRPallikere, Kerala
47KQKKottikkulam (2)  09:18+1:0309:20+1:022m2213.64425mSRBekal, Kerala
48KGQKasaragod (3)X  09:33+1:0009:35+1:002m2223.110518mSRTel: 04994 220800, Kerala
49KMQKumbala (2)  09:42+5709:44+562m--235.32823mSRKumbla, Kerala
50MAQ•Mangalore Central (3)•  10:55+37-1268.8-14mSRMangalore 575001, Karnataka
Scroll to Top
Scroll to Bottom